Current | Forecast
Updated: 9:00 AM JST on May 28, 2017
Observed at Niigata Airport, Japan
Temperature 63°F
Humidity 82%
Dew Point 57°F
Wind West at 20 mph
Pressure 29.92 in (Steady)
Conditions Light Rain Showers
Visibility 6.2 miles
UV 0 out of 16
Clouds (FEW) : 1500 ft
Scattered Clouds (SCT) : 2500 ft
Mostly Cloudy (BKN) : 3500 ft
Yesterday's Maximum 70°F
Yesterday's Minimum 57°F approx.
Yesterday's Heating Degree Days 1 approx.
Sunrise4:27 AM JST
Sunset6:56 PM JST
Moon Rise6:47 AM JST
Moon Set9:26 PM JST
Moon PhaseMoon Phase
Waxing Crescent
Raw METARMETAR RJSN 280000Z 27017KT 9999 -SHRA FEW015 SCT025 BKN035 17/14 Q1013


Monday
. High: 73° F.
Tuesday
. High: 73° F.
Wednesday
. High: 62° F.
Thursday
. High: 66° F.
Friday
. High: 68° F.
Saturday
. High: 66° F.
Sunday
. High: 66° F.
Monday
. High: 62° F.

Units: English | Metric

Find the Weather for any City, State or Zipcode, or Country:

U.S. State List | Severe Weather | Tropical Storms | Ski Conditions
United States | Canada | Central America | South America | Asia | Europe | Australia | Africa | Islands

Weather Underground

© Copyright 2017
The Weather Company, LLC